Airports

 

 

Airport Name Latest METAR Visual Conditions
Atlanta International (ATL) KATL 262252Z 28008KT 10SM BKN150CB BKN200 OVC250 24/18 A3016 RMK AO2 SLP204 VIRGA OHD-ALQDS CBMAM NE-OHD-SW T02390183 VFR
Asheville Regional (AVL) KAVL 262254Z 36005KT 10SM CLR 28/15 A3022 RMK AO2 SLP206 T02780150 VFR
Birmingham International (BHM) KBHM 262345Z 15008KT 10SM BKN250 23/19 A3020 RMK AO2 LTG DSNT ALQDS RAB02E19 TSE43 TS MOV S P0000 T02280189 VFR
Chattanooga (CHA) KCHA 262253Z 17004KT 10SM FEW055 BKN250 32/18 A3012 RMK AO2 SLP190 T03220178 $ VFR
Charlotte International (CLT) KCLT 262252Z 31003KT 10SM SCT220 BKN250 29/18 A3015 RMK AO2 SLP201 T02890183 VFR
Greensboro Piedmont-Triad (GSO) KGSO 262254Z 33003KT 10SM FEW090 OVC250 30/17 A3013 RMK AO2 SLP192 T03000172 VFR
Greenville-Spartanburg International (GSP) KGSP 262253Z 00000KT 10SM CLR 29/19 A3016 RMK AO2 SLP200 T02890189 VFR
Middle Georgia Regional Airport (MCN) KMCN 262253Z 03003KT 10SM CLR 32/20 A3011 RMK AO2 LTG DSNT W AND NW SLP191 T03170200 VFR
Tri-Cities Airport (TRI) KTRI 262253Z 18004KT 10SM FEW045 BKN250 28/17 A3019 RMK AO2 SLP199 T02830172 $ VFR
Knoxville Regional (TYS) KTYS 262253Z 09004KT 10SM FEW045 FEW180 BKN250 30/17 A3013 RMK AO2 SLP191 T03000172 VFR